x

Fred Howard Park, Fl (fhpf1) Weather Station

8:54pm - Tue 22nd Jan 2019 All times are EST. -5 hours from GMT.

  • Wind
    9mph, 11mph gusts
  • Air Temp 65°f
  • Sea Pressure 1027.1mb
  • Fred Howard Park, Fl
  • Fred Howard Park, Fl

More Historic Weather Station data

Upgrade to MSW Pro to gain access to the past 30 days of data for over 8000 Wavebouys and Weather Stations around the globe.

Join

Comparision Forecast

View Surf forecast
   
Tue 01/22 8:54pm 9 11 mph 1027.1mb 65f
7:54pm 11 15 mph 1027mb 67f
6:54pm 11 15 mph 1026.7mb 69f
5:54pm 13 15 mph 1026.2mb 70f
4:54pm 14 21 mph 1026.2mb 72f
3:54pm 16 25 mph 1026.2mb 72f
2:54pm 15 21 mph 1026.7mb 72f
1:54pm 14 20 mph 1027.3mb 71f
12:54pm 17 23 mph 1028.4mb 69f
11:54am 15 20 mph 1029.4mb 68f
10:54am 16 21 mph 1029.7mb 65f
9:54am 11 15 mph 1029.7mb 60f
8:54am 13 16 mph 1029.3mb 54f
7:54am 11 13 mph 1028.7mb 51f
6:54am 9 13 mph 1027.8mb 49f
5:54am 13 15 mph 1027.6mb 47f
4:54am 13 16 mph 1027.7mb 47f
3:54am 10 14 mph 1027.6mb 47f
2:54am 9 11 mph 1027.6mb 46f
1:54am 13 14 mph 1028.3mb 47f
12:54am 11 15 mph 1028.7mb 47f
Mon 01/21 11:54pm 11 14 mph 1029mb 49f
10:54pm 13 16 mph 1029.3mb 49f
9:54pm 14 18 mph 1029.3mb 51f
8:54pm 11 14 mph 1028.9mb 53f
7:54pm 9 11 mph 1028.4mb 55f
6:54pm  -  0 mph 1027.5mb 55f
5:54pm 9 11 mph 1027mb 56f
4:54pm 13 15 mph 1026.5mb 56f
3:54pm 15 16 mph 1026.1mb 55f
2:54pm 15 16 mph 1025.8mb 53f
1:54pm 16 18 mph 1025.9mb 51f
12:54pm 15 17 mph 1026.8mb 50f
11:54am 14 17 mph 1027.7mb 48f
10:54am 10 13 mph 1027.6mb 46f
9:54am 9 13 mph 1027.5mb 44f
8:54am 10 13 mph 1026.9mb 42f
7:54am 11 15 mph 1026.2mb 41f
6:54am 11 14 mph 1025.6mb 42f
5:54am 11 13 mph 1024.7mb 43f
4:54am 9 11 mph 1024.3mb 44f
3:54am 15 17 mph 1024.1mb 49f
2:54am 14 17 mph 1023.8mb 50f
1:54am 18 22 mph 1024.3mb 50f
12:54am 21 26 mph 1023.9mb 50f
Sun 01/20 11:54pm 20 22 mph 1023.2mb 52f
10:54pm 22 24 mph 1023.1mb 53f
9:54pm 20 26 mph 1022mb 53f
8:54pm 22 25 mph 1021.5mb 53f
7:54pm 23 28 mph 1021.1mb 52f
6:54pm 15 22 mph 1019.3mb 51f
4:54pm 22 29 mph 1018mb 51f
3:54pm 23 28 mph 1017.5mb 52f
2:54pm 23 29 mph 1017mb 53f
1:54pm 24 29 mph 1016.9mb 53f
12:54pm 23 28 mph 1017.1mb 56f
11:54am 24 29 mph 1016.6mb 58f
10:54am 24 31 mph 1015.9mb 59f
9:54am 23 26 mph 1014.8mb 59f
8:54am 23 28 mph 1013.6mb 61f
7:54am 23 26 mph 1012.6mb 62f
6:54am 22 26 mph 1011.9mb 62f
5:54am 23 28 mph 1010.6mb 64f
4:54am 18 22 mph 1010.1mb 65f
3:54am 15 25 mph 1010.1mb 64f
2:54am 18 22 mph 1009.7mb 65f